Date,TemperatureHighF,TemperatureAvgF,TemperatureLowF,DewpointHighF,DewpointAvgF,DewpointLowF,HumidityHigh,HumidityAvg,HumidityLow,PressureMaxIn,PressureMinIn,WindSpeedMaxMPH,WindSpeedAvgMPH,GustSpeedMaxMPH,PrecipitationSumIn
2012-1-1,33,33,33,32,31,11,95,95,95,0.00,40.00,11,8,26,0.00
2012-1-2,21,18,15,11,5,1,75,57,47,0.00,40.00,19,12,31,0.00
2012-1-3,22,13,-2,8,0,-7,79,58,39,0.00,40.00,12,4,22,0.00
2012-1-4,33,24,12,18,14,7,85,66,48,0.00,40.00,12,4,24,0.00
2012-1-5,47,34,16,27,22,14,90,64,43,0.00,40.00,6,2,12,0.00
2012-1-6,49,44,35,28,24,21,59,47,38,0.00,40.00,7,5,16,0.00
2012-1-7,38,31,18,23,18,14,89,60,44,0.00,40.00,15,6,29,0.00
2012-1-8,38,22,13,23,18,10,92,85,46,0.00,40.00,4,1,10,0.00
2012-1-9,47,36,25,25,23,20,91,62,36,0.00,40.00,9,5,22,0.00
2012-1-10,52,35,22,32,25,20,93,70,36,0.00,40.00,7,2,15,0.00
2012-1-11,47,23,22,31,-6,-100,99,86,44,0.00,40.00,11,3,21,0.00
2012-1-12,32,26,25,26,20,20,84,83,79,0.00,40.00,11,7,19,0.00
2012-1-13,25,19,15,20,12,8,84,75,63,0.00,40.00,10,7,22,0.00
2012-1-14,17,15,13,8,8,7,79,71,66,0.00,40.00,3,1,7,0.00
2012-1-15,34,23,17,22,11,-100,79,66,57,0.00,40.00,7,-36,21,0.00
2012-1-16,38,29,25,26,22,21,86,76,52,0.00,40.00,7,2,15,0.00
2012-1-17,31,21,7,25,13,-1,83,71,62,0.00,40.00,15,7,24,0.00
2012-1-18,22,10,7,14,1,-1,75,68,58,0.00,40.00,8,6,19,0.00
2012-1-19,22,1,-7,17,-12,-23,80,54,32,0.00,40.00,15,8,27,0.00
2012-1-20,6,-3,-14,-1,-10,-24,81,71,53,0.00,40.00,2,0,5,0.00
2012-1-21,20,4,-10,3,-6,-14,83,65,37,0.00,40.00,5,2,12,0.00
2012-1-22,27,21,7,26,17,-1,94,85,70,0.00,40.00,6,2,17,0.00
2012-1-23,32,29,26,31,26,20,95,90,78,0.00,40.00,7,5,20,0.00
2012-1-24,31,24,14,20,16,12,89,74,50,0.00,40.00,11,5,21,0.00
2012-1-25,32,25,15,22,18,12,90,77,60,0.00,40.00,9,2,13,0.00
2012-1-26,34,29,23,31,27,20,95,90,77,0.00,40.00,9,3,17,0.00
2012-1-27,36,34,34,24,21,9,67,61,32,0.00,40.00,9,7,17,0.00
2012-1-28,30,24,19,13,9,7,72,54,40,0.00,40.00,12,7,26,0.00
2012-1-29,20,17,4,8,6,-2,77,63,61,0.00,40.00,3,2,6,0.00
2012-1-30,20,12,3,11,6,-2,82,77,69,0.00,40.00,3,1,9,0.00
2012-1-31,52,18,39,32,-50,-100,99,73,41,0.00,40.00,10,-75,24,0.00
2012-2-1,40,33,26,31,26,23,93,76,60,0.00,40.00,10,2,17,0.00
2012-2-2,33,31,25,31,29,23,95,89,84,0.00,40.00,6,3,13,0.00
2012-2-3,31,31,31,27,27,27,88,88,88,0.00,40.00,3,1,6,0.00
2012-2-4,43,12,30,31,-59,-100,99,90,41,0.00,40.00,3,0,10,0.00
2012-2-5,42,17,28,26,-38,-100,99,84,46,0.00,40.00,7,2,14,0.00
2012-2-6,42,31,27,26,24,19,90,76,46,0.00,40.00,7,4,15,0.00
2012-2-7,30,28,17,26,22,10,86,80,52,0.00,40.00,2,2,4,0.00
2012-2-8,24,18,17,12,11,3,82,77,41,0.00,40.00,4,0,9,0.00
2012-2-9,37,26,15,20,10,4,71,53,34,0.00,40.00,9,4,21,0.00
2012-2-10,30,20,8,26,12,-4,87,70,47,0.00,40.00,12,6,25,0.00
2012-2-11,8,4,3,-4,-10,-11,59,53,50,0.00,40.00,9,5,14,0.00
2012-2-12,32,17,3,2,-4,-11,53,41,26,0.00,40.00,9,6,19,0.00
2012-2-13,32,21,4,26,12,-3,94,70,43,0.00,40.00,6,3,12,0.00
2012-2-14,34,30,27,29,25,23,95,83,68,0.00,40.00,7,2,10,0.00
2012-2-15,32,28,31,29,14,-100,99,85,79,0.00,40.00,7,4,14,0.00
2012-2-16,36,33,31,30,21,15,94,61,46,0.00,40.00,10,5,14,0.00
2012-2-17,38,30,21,28,22,16,91,71,52,0.00,40.00,6,3,13,0.00
2012-2-18,37,28,14,24,14,5,84,59,32,0.00,40.00,9,4,15,0.00
2012-2-19,44,25,8,21,10,5,89,61,25,0.00,40.00,4,1,11,0.00
2012-2-20,43,30,10,21,15,8,91,59,34,0.00,40.00,8,4,19,0.00
2012-2-21,43,36,31,33,25,15,94,69,34,0.00,40.00,13,6,28,0.00
2012-2-22,42,32,20,24,17,11,82,56,29,0.00,40.00,11,4,22,0.00
2012-2-23,40,28,17,24,17,15,92,67,38,0.00,40.00,4,1,10,0.00
2012-2-24,31,30,28,24,20,18,77,68,59,0.00,40.00,10,7,20,0.00
2012-2-25,32,30,28,18,15,12,65,55,43,0.00,40.00,9,8,17,0.00
2012-2-26,46,35,31,24,15,12,59,45,41,0.00,40.00,12,7,24,0.00
2012-2-27,35,28,17,18,15,12,86,58,43,0.00,40.00,14,7,25,0.00
2012-2-28,38,29,17,31,21,13,94,75,47,0.00,40.00,7,3,17,0.00
2012-2-29,37,33,31,36,32,30,95,94,91,0.00,40.00,9,4,24,0.00
2012-3-1,34,32,30,32,27,25,93,81,69,0.00,40.00,7,3,17,0.00
2012-3-2,33,29,27,32,23,-100,94,88,80,0.00,40.00,13,-40,23,0.00
2012-3-3,32,25,26,23,6,-100,84,63,55,0.00,40.00,12,-112,20,0.00
2012-3-4,27,17,13,22,-10,-100,87,59,53,0.00,40.00,4,-218,9,0.00
2012-3-5,30,18,8,17,4,-100,89,69,48,0.00,40.00,6,-72,14,0.00
2012-3-6,60,52,37,35,34,32,89,53,38,0.00,40.00,13,7,24,0.00
2012-3-7,55,36,37,38,-1,-100,99,68,48,0.00,40.00,17,7,29,0.00
2012-3-8,38,34,29,34,19,8,90,56,30,0.00,40.00,13,9,33,0.00
2012-3-9,34,27,19,8,3,-2,50,37,23,0.00,40.00,14,8,26,0.00
2012-3-10,64,45,27,24,18,8,54,36,20,0.00,40.00,18,8,35,0.00
2012-3-11,67,53,38,32,26,22,66,38,21,0.00,40.00,9,5,20,0.00
2012-3-12,57,51,47,51,43,32,93,74,46,0.00,40.00,8,4,19,0.00
2012-3-13,66,52,33,42,29,20,76,46,19,0.00,40.00,11,6,19,0.00
2012-3-14,78,55,29,52,41,26,91,64,39,0.00,40.00,14,4,24,0.00
2012-3-15,75,52,44,56,35,-100,99,74,35,0.00,40.00,4,2,12,0.00
2012-3-16,77,39,36,52,6,-100,99,81,37,0.00,40.00,7,1,17,0.00
2012-3-17,62,11,46,57,-68,-100,99,97,84,0.00,40.00,9,1,16,0.00
2012-3-18,63,6,46,54,-82,-100,99,97,74,0.00,40.00,8,0,14,0.00
2012-3-19,70,12,47,62,-68,-100,99,96,61,0.00,40.00,7,0,12,0.00
2012-3-20,-200,0,200,-100,-100,-100,99,99,99,0.00,40.00,0,0,0,0.00
2012-3-21,80,25,78,51,-53,-100,99,78,32,0.00,40.00,10,2,20,0.00
2012-3-22,-200,0,200,-100,-100,-100,99,99,99,0.00,40.00,0,0,0,0.00
2012-3-23,62,55,54,60,50,-100,99,93,90,0.00,40.00,4,2,9,0.00
2012-3-24,59,55,51,53,51,49,93,87,74,0.00,40.00,7,3,11,0.00
2012-3-25,65,47,40,52,19,-100,99,71,30,0.00,40.00,9,4,16,0.00
2012-3-26,40,35,30,34,25,19,79,67,62,0.00,40.00,6,4,19,0.00
2012-3-28,55,49,35,32,31,30,88,52,39,0.00,40.00,13,7,24,0.00
2012-3-29,52,37,26,37,26,22,93,70,33,0.00,40.00,6,2,17,0.00
2012-3-30,40,37,33,38,34,27,93,90,75,0.00,40.00,5,2,13,0.00
2012-3-31,43,38,35,37,34,33,93,87,74,0.00,40.00,5,3,12,0.00
2012-4-1,62,46,36,42,38,32,93,77,35,0.00,40.00,4,2,13,0.00
2012-4-2,62,49,40,39,32,-100,88,57,31,0.00,40.00,9,-7,20,0.00
2012-4-3,60,53,35,42,38,28,92,60,39,0.00,40.00,7,3,19,0.00
2012-4-4,63,37,27,35,6,-100,99,66,19,0.00,40.00,6,2,15,0.00
2012-4-5,45,29,28,28,-5,-100,99,70,45,0.00,40.00,5,2,14,0.00
2012-4-6,60,39,23,31,24,21,93,62,25,0.00,40.00,6,2,12,0.00
2012-4-7,62,33,25,47,3,-100,99,77,30,0.00,40.00,12,3,20,0.00
2012-4-8,47,43,31,43,29,23,90,62,39,0.00,40.00,9,5,17,0.00
2012-4-9,50,31,30,27,-10,-100,99,57,22,0.00,40.00,20,6,34,0.00
2012-4-10,36,31,28,16,14,11,55,49,41,0.00,40.00,12,8,21,0.00
2012-4-11,56,42,29,26,20,15,58,44,30,0.00,40.00,9,7,18,0.00
2012-4-12,55,15,26,34,-54,-100,99,84,28,0.00,40.00,6,1,11,0.00
2012-4-13,57,44,28,34,21,-100,93,51,32,0.00,40.00,11,-46,21,0.00
2012-4-14,60,3,57,51,-94,-100,99,97,32,0.00,40.00,11,0,21,0.00
2012-4-15,76,62,57,63,50,-100,99,78,49,0.00,40.00,17,7,35,0.00
2012-4-16,66,49,36,59,37,24,82,63,52,0.00,40.00,17,10,32,0.00
2012-4-17,58,34,24,35,10,-100,99,69,27,0.00,40.00,6,2,12,0.00
2012-4-18,67,29,40,45,-16,-100,99,83,46,0.00,40.00,11,3,27,0.00
2012-4-19,54,43,34,41,34,29,94,75,39,0.00,40.00,6,3,19,0.00
2012-4-20,55,41,31,35,31,22,95,74,32,0.00,40.00,9,5,21,0.00
2012-4-21,54,33,24,36,6,-100,99,70,26,0.00,40.00,4,1,13,0.00
2012-4-22,53,45,33,29,24,21,79,47,29,0.00,40.00,4,3,14,0.00
2012-4-23,59,54,40,25,23,19,44,29,25,0.00,40.00,13,9,24,0.00
2012-4-24,66,50,40,30,23,20,53,37,23,0.00,40.00,11,4,21,0.00
2012-4-25,50,45,39,43,38,29,90,78,52,0.00,40.00,2,1,10,0.00
2012-4-26,55,47,29,42,30,17,91,58,25,0.00,40.00,16,7,26,0.00
2012-4-27,54,31,22,27,-5,-100,99,64,23,0.00,40.00,6,2,16,0.00
2012-4-28,44,41,33,38,26,-100,91,61,35,0.00,40.00,5,2,20,0.00
2012-4-29,60,44,28,39,27,17,95,60,21,0.00,40.00,6,2,20,0.00
2012-4-30,53,46,41,45,41,38,94,85,67,0.00,40.00,5,2,12,0.00
2012-5-1,69,52,32,53,41,31,94,71,37,0.00,40.00,12,3,19,0.00
2012-5-2,83,64,56,63,48,-100,99,71,31,0.00,40.00,7,-8,15,0.00
2012-5-3,66,65,64,63,62,61,93,92,89,0.00,40.00,7,2,21,0.00
2012-5-8,59,59,59,36,36,36,43,43,43,0.00,40.00,7,7,13,0.00
2012-5-10,36,36,36,33,33,33,91,91,91,0.00,40.00,0,0,1,0.00
2012-5-14,74,74,74,36,36,36,25,25,25,0.00,40.00,4,4,11,0.00
2012-5-31,47,47,47,43,43,43,85,85,85,0.00,40.00,2,2,5,0.00
2012-6-2,50,50,50,38,38,38,64,64,64,0.00,40.00,6,6,14,0.00
2012-6-7,59,59,59,52,52,52,78,78,78,0.00,40.00,0,0,1,0.00
2012-6-14,45,45,45,40,40,40,84,84,84,0.00,40.00,0,0,0,0.00
2012-6-23,-200,0,200,-100,-100,-100,0,0,100,0.00,40.00,0,-999,0,0.00
2012-7-25,-200,0,200,-100,-100,-100,99,99,99,0.00,40.00,0,0,0,0.00
2012-7-26,71,1,71,54,-97,-100,99,98,55,0.00,40.00,0,0,2,0.00
2012-7-27,71,67,63,61,58,54,88,73,55,0.00,40.00,5,3,9,0.00
2012-7-30,58,58,58,56,56,56,93,93,93,0.00,40.00,0,0,1,0.00
2012-7-31,85,73,63,61,53,46,90,56,28,0.00,40.00,6,3,11,0.00
2012-8-1,61,26,54,53,-31,-100,99,93,75,0.00,40.00,1,0,1,0.00
2012-8-2,82,26,69,63,-45,-100,99,85,39,0.00,40.00,2,0,4,0.00
2012-8-3,69,65,62,63,61,59,92,89,82,0.00,40.00,1,0,2,0.00
2012-8-7,77,72,63,45,42,42,52,35,28,0.00,40.00,3,2,6,0.00
2012-8-8,63,59,56,58,52,45,91,79,52,0.00,40.00,1,0,4,0.00
2012-8-13,62,62,62,58,58,58,88,88,88,0.00,40.00,1,1,4,0.00
2012-8-15,62,62,62,52,52,52,69,69,69,0.00,40.00,0,0,1,0.00
2012-8-21,-200,0,200,-100,-100,-100,0,0,100,0.00,40.00,0,-999,0,0.00
2012-10-16,47,47,47,45,45,45,93,93,93,0.00,40.00,2,2,9,0.00
2012-10-24,-200,0,200,-100,-100,-100,99,99,99,0.00,40.00,0,0,0,0.00
2012-10-25,-200,0,200,-100,-100,-100,99,99,99,0.00,40.00,0,0,0,0.00
2012-10-29,49,37,19,32,19,14,92,53,25,0.00,40.00,7,2,10,0.00
2012-10-30,46,40,35,26,20,15,71,46,31,0.00,40.00,18,12,29,0.00
2012-10-31,47,40,31,26,20,12,71,47,32,0.00,40.00,11,7,22,0.00
2012-11-1,48,44,41,27,24,20,57,46,39,0.00,40.00,10,8,20,0.00
2012-11-2,41,41,41,27,27,27,59,59,59,0.00,40.00,7,7,12,0.00
2012-11-3,28,28,28,21,21,21,75,75,75,0.00,40.00,0,0,1,0.00
2012-11-4,26,26,26,21,21,21,84,84,84,0.00,40.00,0,0,2,0.00
2012-11-5,37,35,33,30,28,26,88,76,63,0.00,40.00,4,4,7,0.00
2012-11-6,35,35,35,34,34,34,94,94,94,0.00,40.00,3,3,9,0.00
2012-11-8,51,46,42,35,32,29,77,60,43,0.00,40.00,7,6,13,0.00
2012-11-9,41,41,41,36,36,36,84,84,84,0.00,40.00,2,2,6,0.00
2012-11-11,-200,0,200,-100,-100,-100,99,99,99,0.00,40.00,0,0,0,0.00
2012-11-12,26,26,26,10,10,10,50,50,50,0.00,40.00,7,7,18,0.00
2012-11-13,35,32,30,16,16,15,57,50,44,0.00,40.00,5,4,7,0.00
2012-11-14,49,43,36,27,24,22,66,49,35,0.00,40.00,11,6,21,0.00
2012-11-15,53,46,37,27,24,21,59,43,29,0.00,40.00,9,6,16,0.00
2012-11-16,46,37,27,34,28,25,93,73,51,0.00,40.00,2,1,10,0.00
2012-11-17,53,42,35,34,31,28,94,70,39,0.00,40.00,8,4,14,0.00
2012-11-18,58,45,27,38,28,24,94,54,29,0.00,40.00,8,3,16,0.00
2012-11-19,42,37,33,32,31,30,89,79,63,0.00,40.00,2,1,7,0.00
2012-11-20,48,12,30,33,-56,-100,99,94,57,0.00,40.00,1,0,3,0.00
2012-11-21,30,28,27,28,27,26,95,94,94,0.00,40.00,1,0,1,0.00
2012-11-23,26,26,26,13,13,13,56,56,56,0.00,40.00,10,10,21,0.00
2012-11-26,26,25,24,6,5,4,44,42,41,0.00,40.00,7,6,17,0.00
2012-11-27,31,23,6,11,7,2,86,55,39,0.00,40.00,6,4,17,0.00
2012-11-28,36,34,33,18,17,16,52,48,45,0.00,40.00,7,6,12,0.00
2012-11-29,47,41,32,27,26,24,84,55,41,0.00,40.00,1,1,6,0.00
2012-11-30,43,34,33,31,30,22,89,83,43,0.00,40.00,2,0,7,0.00
2012-12-1,46,46,45,44,42,38,94,90,75,0.00,40.00,2,1,6,0.00
2012-12-2,46,44,38,44,42,36,94,93,89,0.00,40.00,3,1,9,0.00
2012-12-3,59,46,39,57,45,37,93,93,93,0.00,40.00,9,3,17,0.00
2012-12-4,46,38,28,29,20,9,60,47,38,0.00,40.00,14,8,23,0.00
2012-12-5,34,28,17,22,14,10,84,59,38,0.00,40.00,4,2,11,0.00
2012-12-6,37,33,31,29,22,-100,75,71,72,0.00,40.00,7,4,16,0.00
2012-12-7,32,32,32,23,23,23,71,71,71,0.00,40.00,2,2,9,0.00
2012-12-8,38,31,26,23,21,14,83,67,42,0.00,40.00,3,2,9,0.00
2012-12-9,32,30,27,30,27,22,93,89,83,0.00,40.00,4,2,14,0.00
2012-12-10,31,27,23,29,22,18,93,83,64,0.00,40.00,7,3,12,0.00
2012-12-11,26,23,19,20,17,14,88,78,67,0.00,40.00,7,3,12,0.00
2012-12-12,39,36,22,19,19,19,88,53,44,0.00,40.00,8,6,16,0.00
2012-12-13,43,32,21,20,17,15,90,57,34,0.00,40.00,9,3,16,0.00
2012-12-14,43,29,19,32,19,16,93,71,37,0.00,40.00,3,1,10,0.00
2012-12-15,35,35,33,33,33,32,93,93,93,0.00,40.00,3,1,9,0.00
2012-12-17,26,26,26,20,20,20,80,80,80,0.00,40.00,6,2,9,0.00
2012-12-18,28,26,23,24,22,20,91,86,79,0.00,40.00,3,1,10,0.00
2012-12-19,32,32,32,26,26,26,78,78,78,0.00,40.00,0,0,3,0.00
2012-12-20,32,31,31,30,28,26,91,88,83,0.00,40.00,16,10,34,0.00
2012-12-21,24,24,24,16,16,16,70,70,70,0.00,40.00,15,15,26,0.00
2012-12-25,19,19,19,7,7,7,59,59,59,0.00,40.00,4,4,10,0.00